createdAt,value
2022-10-18T00:28:34.730Z,10
2022-10-18T00:57:13.143Z,10
2022-10-18T01:25:54.307Z,10
2022-10-18T01:54:41.399Z,10
2022-10-18T02:23:22.102Z,9
2022-10-18T02:52:02.731Z,10
2022-10-18T03:20:45.869Z,10
2022-10-18T03:49:29.198Z,11
2022-10-18T04:18:04.668Z,13
2022-10-18T04:46:46.234Z,12
2022-10-18T05:15:26.449Z,11
2022-10-18T05:44:04.619Z,13
2022-10-18T06:12:37.661Z,13
2022-10-18T06:41:12.203Z,14
2022-10-18T07:09:47.016Z,11
2022-10-18T07:38:15.108Z,13
2022-10-18T08:06:45.289Z,12
2022-10-18T08:35:17.373Z,13
2022-10-18T09:03:57.333Z,12
2022-10-18T09:32:36.104Z,10
2022-10-18T10:01:11.949Z,9
2022-10-18T10:29:45.858Z,8
2022-10-18T10:58:12.164Z,6
2022-10-18T11:26:46.198Z,6
2022-10-18T11:55:06.315Z,6
2022-10-18T12:23:24.899Z,7
2022-10-18T12:51:59.325Z,6
2022-10-18T13:20:42.048Z,5
2022-10-18T13:49:06.240Z,7
2022-10-18T14:17:35.647Z,6
2022-10-18T14:18:20.342Z,7
2022-10-18T14:46:14.232Z,6
2022-10-18T15:14:35.734Z,7
2022-10-18T15:43:00.673Z,12
2022-10-18T16:11:23.496Z,11
2022-10-18T16:39:51.166Z,10
2022-10-18T17:08:16.748Z,17
2022-10-18T17:36:30.263Z,14
2022-10-18T18:04:59.606Z,14
2022-10-18T18:33:34.084Z,13
2022-10-18T19:02:07.095Z,16
2022-10-18T19:30:39.445Z,13
2022-10-18T19:59:18.791Z,13
2022-10-18T20:27:55.461Z,14
2022-10-18T21:25:12.117Z,14
2022-10-18T21:53:29.871Z,13
2022-10-18T22:22:08.198Z,13
2022-10-18T22:50:44.922Z,11
2022-10-18T23:19:24.647Z,12
2022-10-18T23:48:11.888Z,13
